Time;durP1;ratioP1;P1;durP2;ratioP2;P2;SDS_P1;SDS_P2;PMS_P1;PMS_P2;Temp;Humidity;BMP_temperature;BMP_pressure;BME280_temperature;BME280_humidity;BME280_pressure;Samples;Min_cycle;Max_cycle;Signal;HPM_P1;HPM_P2
2023/10/20 00:02:49;;;;;;;5.68;3.13;;;;;;;15.12;71.89;97079.59;10425603;28;20079;-59
2023/10/20 00:07:53;;;;;;;4.60;2.60;;;;;;;15.14;72.01;97077.59;10429632;28;20052;-59
2023/10/20 00:12:58;;;;;;;5.03;2.50;;;;;;;15.13;71.90;97075.94;10419516;28;20076;-59
2023/10/20 00:18:01;;;;;;;4.80;2.70;;;;;;;15.14;72.09;97074.97;10406356;28;20052;-59
2023/10/20 00:23:03;;;;;;;4.45;2.65;;;;;;;15.17;72.15;97056.13;10406524;28;20052;-59
2023/10/20 00:28:05;;;;;;;4.40;2.38;;;;;;;15.17;72.34;97058.78;10426828;28;20072;-60
2023/10/20 00:33:07;;;;;;;5.47;2.50;;;;;;;15.19;72.31;97051.50;10425963;28;20064;-59
2023/10/20 00:38:10;;;;;;;5.00;2.50;;;;;;;15.22;72.18;97044.06;10426363;28;20041;-59
2023/10/20 00:43:12;;;;;;;3.63;2.10;;;;;;;15.15;72.30;97045.81;10428353;28;20493;-59
2023/10/20 00:48:15;;;;;;;5.35;2.15;;;;;;;15.15;72.04;97037.09;10407290;28;20464;-59
2023/10/20 00:53:17;;;;;;;3.63;2.05;;;;;;;15.12;72.63;97017.22;10415802;28;20770;-60
2023/10/20 00:58:19;;;;;;;3.55;2.13;;;;;;;15.05;72.81;97012.91;10417559;28;20072;-60
2023/10/20 01:03:22;;;;;;;3.63;2.08;;;;;;;15.19;72.41;97004.09;10417022;28;20480;-60
2023/10/20 01:08:24;;;;;;;4.63;2.67;;;;;;;15.35;71.89;97002.00;10421064;28;20163;-59
2023/10/20 01:13:27;;;;;;;4.57;2.58;;;;;;;15.43;71.76;96987.88;10411281;28;20076;-59
2023/10/20 01:18:29;;;;;;;6.00;2.40;;;;;;;15.36;71.90;96992.28;10440231;28;20045;-59
2023/10/20 01:23:31;;;;;;;3.80;2.22;;;;;;;15.45;71.34;96993.75;10426058;28;20045;-60
2023/10/20 01:28:33;;;;;;;3.92;2.25;;;;;;;15.48;71.11;96974.94;10425697;28;20047;-60
2023/10/20 01:33:35;;;;;;;4.43;2.67;;;;;;;15.50;70.96;96970.31;10423192;28;20068;-59
2023/10/20 01:38:37;;;;;;;4.95;2.22;;;;;;;15.62;70.93;96965.31;10425662;28;20199;-59
2023/10/20 01:43:39;;;;;;;4.35;2.25;;;;;;;15.58;70.82;96979.88;10403185;28;20060;-60
2023/10/20 01:48:41;;;;;;;4.70;2.13;;;;;;;15.53;71.18;96961.22;10407077;28;20406;-59
2023/10/20 01:53:43;;;;;;;3.85;2.30;;;;;;;15.57;70.75;96954.56;10424861;28;20767;-59
2023/10/20 01:58:45;;;;;;;3.58;2.10;;;;;;;15.57;71.06;96939.56;10424880;28;20072;-59
2023/10/20 02:03:49;;;;;;;4.45;2.28;;;;;;;15.63;70.77;96924.81;10429127;28;20053;-60
2023/10/20 02:08:51;;;;;;;4.70;2.40;;;;;;;15.43;71.25;96919.38;10448160;28;20070;-59
2023/10/20 02:13:53;;;;;;;4.53;2.47;;;;;;;15.35;71.19;96901.13;10432460;28;20069;-59
2023/10/20 02:18:55;;;;;;;4.25;2.28;;;;;;;15.36;71.16;96877.25;10416302;28;20036;-59
2023/10/20 02:23:58;;;;;;;4.90;2.60;;;;;;;15.30;71.12;96861.41;10405258;28;20045;-59
2023/10/20 02:28:59;;;;;;;4.38;2.33;;;;;;;15.35;71.27;96848.47;10432611;28;20536;-59
2023/10/20 02:34:01;;;;;;;3.63;2.15;;;;;;;15.19;71.53;96841.72;10432410;28;20045;-59
2023/10/20 02:39:03;;;;;;;4.45;2.58;;;;;;;15.09;71.57;96832.53;10412584;28;20036;-59
2023/10/20 02:44:05;;;;;;;4.28;2.55;;;;;;;15.07;71.81;96824.03;10432163;28;20044;-59
2023/10/20 02:49:07;;;;;;;8.18;2.88;;;;;;;15.06;71.60;96817.16;10440700;28;20041;-59
2023/10/20 02:54:10;;;;;;;4.97;2.72;;;;;;;14.99;71.94;96811.03;10439796;28;20045;-59
2023/10/20 02:59:12;;;;;;;5.13;2.28;;;;;;;15.09;71.60;96804.41;10422174;28;20045;-59
2023/10/20 03:04:15;;;;;;;4.28;2.30;;;;;;;15.25;71.07;96792.72;10416653;28;20163;-59
2023/10/20 03:09:18;;;;;;;5.00;2.60;;;;;;;15.15;71.15;96779.94;10448600;28;20072;-59
2023/10/20 03:14:21;;;;;;;4.78;2.70;;;;;;;14.98;71.67;96764.69;10431887;28;20157;-59
2023/10/20 03:19:23;;;;;;;4.60;2.50;;;;;;;15.04;71.23;96758.63;10423663;28;20061;-59
2023/10/20 03:24:25;;;;;;;4.78;2.55;;;;;;;14.99;71.38;96746.06;10425151;28;20057;-59
2023/10/20 03:29:28;;;;;;;4.53;2.50;;;;;;;14.94;71.47;96735.28;10430461;28;20517;-59
2023/10/20 03:34:32;;;;;;;4.82;2.67;;;;;;;14.90;71.94;96723.53;10430733;28;20057;-59
2023/10/20 03:39:34;;;;;;;4.57;2.42;;;;;;;14.95;71.54;96720.31;10431013;28;20128;-60
2023/10/20 03:44:37;;;;;;;3.70;2.10;;;;;;;14.88;71.92;96724.75;10430053;28;20487;-59
2023/10/20 03:49:39;;;;;;;3.70;2.20;;;;;;;14.83;72.06;96701.66;10409212;28;20175;-59
2023/10/20 03:54:41;;;;;;;4.60;2.50;;;;;;;14.82;72.09;96701.88;10429544;28;20528;-59
2023/10/20 03:59:46;;;;;;;7.82;2.60;;;;;;;14.77;71.99;96694.56;10429892;28;20063;-60
2023/10/20 04:04:48;;;;;;;4.03;1.90;;;;;;;14.63;72.68;96665.75;10411343;28;20053;-60
2023/10/20 04:09:50;;;;;;;3.70;1.88;;;;;;;14.62;72.42;96653.59;10428949;28;20568;-59
2023/10/20 04:14:55;;;;;;;3.80;2.20;;;;;;;14.65;72.32;96633.00;10446431;28;20585;-59
2023/10/20 04:19:58;;;;;;;3.40;2.00;;;;;;;14.57;72.45;96628.69;10429504;28;20301;-59
2023/10/20 04:25:01;;;;;;;2.78;1.67;;;;;;;14.64;72.42;96614.75;10429948;28;20056;-59
2023/10/20 04:56:38;;;;;;;4.55;2.50;;;;;;;14.45;72.44;96483.00;10428128;28;20049;-59
2023/10/20 05:01:47;;;;;;;4.88;2.60;;;;;;;14.55;72.03;96506.34;10426763;28;20044;-59
2023/10/20 05:07:05;;;;;;;5.03;3.00;;;;;;;14.66;71.70;96494.41;10408282;28;20384;-59
2023/10/20 05:12:07;;;;;;;7.18;2.75;;;;;;;14.63;71.79;96494.81;10427261;28;20056;-60
2023/10/20 05:17:13;;;;;;;5.25;3.17;;;;;;;14.57;71.68;96497.22;10441807;28;20377;-59
2023/10/20 05:22:15;;;;;;;7.63;3.00;;;;;;;14.49;71.67;96484.25;10427265;28;20041;-60
2023/10/20 05:27:16;;;;;;;5.93;2.55;;;;;;;14.37;71.81;96475.31;10427082;28;20768;-59
2023/10/20 05:32:18;;;;;;;5.82;2.80;;;;;;;14.31;72.28;96456.88;10423183;28;20056;-59
2023/10/20 05:37:21;;;;;;;5.25;2.63;;;;;;;14.14;72.51;96434.63;10426686;28;20404;-59
2023/10/20 05:42:24;;;;;;;6.15;3.22;;;;;;;14.01;73.02;96427.50;10427198;28;20067;-59
2023/10/20 05:47:25;;;;;;;5.43;3.25;;;;;;;13.87;72.92;96425.84;10390997;28;20040;-59
2023/10/20 05:52:27;;;;;;;6.40;3.78;;;;;;;13.83;73.03;96405.41;10426543;28;20053;-59
2023/10/20 05:57:30;;;;;;;10.00;3.33;;;;;;;13.74;73.18;96379.31;10425721;28;20405;-59
2023/10/20 06:02:33;;;;;;;6.47;4.00;;;;;;;13.86;73.20;96384.03;10423396;28;20049;-60
2023/10/20 06:07:35;;;;;;;6.35;3.72;;;;;;;13.93;72.94;96371.69;10424635;28;20048;-59
2023/10/20 06:12:38;;;;;;;7.00;3.67;;;;;;;14.01;72.71;96369.69;10425957;28;20056;-59
2023/10/20 06:17:41;;;;;;;7.57;3.67;;;;;;;14.05;72.44;96364.84;10441042;28;20052;-59
2023/10/20 06:22:44;;;;;;;6.82;4.00;;;;;;;14.08;72.19;96373.16;10426640;28;20075;-59
2023/10/20 06:27:46;;;;;;;6.35;3.58;;;;;;;14.17;72.06;96376.38;10424231;28;20090;-59
2023/10/20 06:33:32;;;;;;;8.80;3.72;;;;;;;14.11;72.33;96372.75;10423072;28;20052;-60
2023/10/20 06:38:17;;;;;;;7.53;3.50;;;;;;;14.13;71.89;96375.16;10397589;28;20056;-59
2023/10/20 06:43:19;;;;;;;9.55;4.03;;;;;;;14.29;71.66;96372.16;10424042;28;20515;-59
2023/10/20 06:48:21;;;;;;;8.07;4.07;;;;;;;14.22;71.81;96379.25;10423616;28;20051;-59
2023/10/20 06:53:25;;;;;;;8.93;3.95;;;;;;;14.11;72.12;96364.88;10424643;28;20367;-60
2023/10/20 06:58:27;;;;;;;6.38;3.30;;;;;;;14.17;71.93;96334.34;10421989;28;20128;-60
2023/10/20 07:03:31;;;;;;;6.57;3.88;;;;;;;14.02;72.50;96317.97;10397067;28;20053;-60
2023/10/20 07:08:34;;;;;;;8.43;3.78;;;;;;;14.00;72.52;96320.81;10421027;28;20309;-60
2023/10/20 07:13:37;;;;;;;9.55;3.78;;;;;;;13.99;72.61;96306.03;10420079;28;20044;-60
2023/10/20 07:18:39;;;;;;;8.20;3.83;;;;;;;13.89;72.80;96305.63;10418300;28;20056;-59
2023/10/20 07:23:41;;;;;;;6.82;3.60;;;;;;;13.97;72.55;96315.94;10420670;28;20436;-60
2023/10/20 07:28:44;;;;;;;6.10;3.28;;;;;;;13.99;72.43;96303.41;10401204;28;20277;-59
2023/10/20 07:33:50;;;;;;;6.03;3.38;;;;;;;13.99;72.40;96292.09;10410331;28;20198;-59
2023/10/20 07:38:52;;;;;;;6.28;3.55;;;;;;;14.17;72.27;96293.13;10425937;28;20051;-60
2023/10/20 07:43:54;;;;;;;7.68;3.80;;;;;;;14.31;71.75;96294.72;10427568;28;20293;-59
2023/10/20 07:48:56;;;;;;;5.97;3.45;;;;;;;14.42;71.40;96288.88;10423061;28;20083;-59
2023/10/20 07:53:59;;;;;;;6.90;3.38;;;;;;;14.47;71.17;96302.19;10426583;28;20245;-60
2023/10/20 07:59:01;;;;;;;5.82;3.55;;;;;;;14.45;71.14;96298.97;10418145;28;20599;-59
2023/10/20 08:04:03;;;;;;;5.80;3.22;;;;;;;14.57;71.43;96299.22;10420954;28;20512;-60
2023/10/20 08:09:05;;;;;;;7.47;3.85;;;;;;;14.53;71.14;96296.16;10391567;28;20039;-59
2023/10/20 08:14:07;;;;;;;7.68;3.60;;;;;;;14.52;70.90;96299.00;10419083;28;20053;-59
2023/10/20 08:19:09;;;;;;;9.10;3.60;;;;;;;14.62;70.32;96299.38;10418826;28;20049;-60
2023/10/20 08:24:11;;;;;;;6.38;3.58;;;;;;;14.68;70.54;96292.50;10407046;28;20048;-59
2023/10/20 08:29:13;;;;;;;9.18;4.22;;;;;;;14.68;69.99;96289.88;10418626;28;20378;-59
2023/10/20 08:34:15;;;;;;;6.40;3.30;;;;;;;14.74;70.00;96278.53;10425536;28;20103;-59
2023/10/20 08:39:20;;;;;;;6.28;3.47;;;;;;;14.65;69.88;96291.09;10420895;28;20081;-62
2023/10/20 08:44:22;;;;;;;7.50;3.97;;;;;;;14.64;69.90;96301.81;10422429;28;20053;-61
2023/10/20 08:49:25;;;;;;;6.80;3.47;;;;;;;14.57;69.91;96323.66;10401770;28;20053;-61
2023/10/20 08:54:27;;;;;;;8.75;3.95;;;;;;;14.82;70.33;96357.25;10421677;28;20047;-61
2023/10/20 08:59:29;;;;;;;6.35;3.33;;;;;;;15.00;69.29;96371.34;10417329;28;20036;-61
2023/10/20 09:04:31;;;;;;;6.88;3.40;;;;;;;15.15;68.98;96369.31;10420645;28;20924;-61
2023/10/20 09:09:36;;;;;;;5.53;3.55;;;;;;;15.22;68.93;96353.50;10395684;28;20045;-62
2023/10/20 09:14:39;;;;;;;6.32;3.70;;;;;;;15.15;69.13;96342.19;10422380;28;20049;-61
2023/10/20 09:19:41;;;;;;;5.32;3.13;;;;;;;15.10;69.05;96334.13;10403639;28;20045;-61
2023/10/20 09:24:48;;;;;;;5.07;3.20;;;;;;;15.03;68.79;96322.78;10420698;28;20052;-61
2023/10/20 09:29:50;;;;;;;5.57;3.15;;;;;;;15.13;68.88;96305.53;10413529;28;20344;-61
2023/10/20 09:34:53;;;;;;;9.63;3.53;;;;;;;15.15;68.57;96315.84;10413254;28;20074;-62
2023/10/20 09:40:06;;;;;;;8.40;3.80;;;;;;;15.05;68.58;96310.22;10417874;28;20252;-61
2023/10/20 09:45:14;;;;;;;6.03;3.45;;;;;;;15.06;68.87;96307.38;10422633;28;20124;-61
2023/10/20 09:50:18;;;;;;;6.10;3.20;;;;;;;15.30;68.34;96308.53;10419234;28;20079;-62
2023/10/20 09:55:22;;;;;;;5.35;3.03;;;;;;;15.35;67.70;96306.06;10417727;28;20052;-61
2023/10/20 10:00:31;;;;;;;8.38;3.83;;;;;;;15.45;67.59;96321.44;10418123;28;20186;-62
2023/10/20 10:05:36;;;;;;;5.18;3.22;;;;;;;15.34;68.02;96359.75;10417583;28;20071;-61
2023/10/20 10:10:38;;;;;;;6.90;3.33;;;;;;;15.47;67.87;96366.81;10420738;28;20401;-61
2023/10/20 10:15:45;;;;;;;8.93;3.10;;;;;;;15.49;67.94;96370.84;10421349;28;20049;-62
2023/10/20 10:20:49;;;;;;;5.53;3.13;;;;;;;15.57;67.10;96369.81;10417252;28;20043;-61
2023/10/20 10:25:51;;;;;;;6.68;3.60;;;;;;;15.35;67.29;96358.72;10414196;28;20034;-62
2023/10/20 10:30:53;;;;;;;6.80;3.80;;;;;;;15.34;67.86;96357.13;10416629;28;20088;-62
2023/10/20 10:36:09;;;;;;;5.38;3.10;;;;;;;15.41;67.34;96342.09;10391762;28;20183;-61
2023/10/20 10:41:21;;;;;;;10.82;3.35;;;;;;;15.38;67.77;96337.25;10416516;28;20191;-61
2023/10/20 10:46:42;;;;;;;5.55;3.30;;;;;;;15.56;67.25;96333.97;10416008;28;20744;-61
2023/10/20 10:51:47;;;;;;;6.03;3.42;;;;;;;15.78;67.24;96336.06;10420470;28;20044;-61
2023/10/20 10:56:52;;;;;;;8.18;3.75;;;;;;;15.91;66.76;96338.66;10395874;28;20228;-61
2023/10/20 11:01:55;;;;;;;5.65;3.55;;;;;;;16.06;66.50;96325.19;10419940;28;20060;-62
2023/10/20 11:06:57;;;;;;;6.38;3.17;;;;;;;16.18;66.57;96313.72;10418927;28;20045;-61
2023/10/20 11:11:59;;;;;;;6.55;3.50;;;;;;;16.58;66.03;96297.63;10422307;28;20044;-62
2023/10/20 11:17:03;;;;;;;7.40;3.42;;;;;;;16.96;65.07;96290.31;10421153;28;20037;-61
2023/10/20 11:22:14;;;;;;;4.30;2.78;;;;;;;17.19;64.54;96295.75;10427618;28;20452;-61
2023/10/20 11:27:17;;;;;;;5.00;2.83;;;;;;;17.03;65.01;96291.06;10408905;28;20064;-62
2023/10/20 11:32:19;;;;;;;6.18;3.65;;;;;;;16.71;65.97;96292.22;10422612;28;20057;-61
2023/10/20 11:37:21;;;;;;;6.47;3.33;;;;;;;16.78;65.84;96280.56;10426808;28;20056;-61
2023/10/20 11:42:23;;;;;;;5.60;3.03;;;;;;;16.69;65.85;96281.88;10425669;28;20045;-61
2023/10/20 11:47:25;;;;;;;7.68;4.40;;;;;;;16.67;65.88;96273.38;10441895;28;20053;-61
2023/10/20 11:52:28;;;;;;;5.25;2.67;;;;;;;16.53;66.20;96290.34;10430130;28;20049;-61
2023/10/20 11:57:31;;;;;;;6.40;3.40;;;;;;;16.65;66.46;96293.09;10411389;28;20048;-61
2023/10/20 12:02:33;;;;;;;8.60;3.40;;;;;;;16.72;66.15;96297.28;10410928;28;20409;-62
2023/10/20 12:07:36;;;;;;;6.57;3.03;;;;;;;16.66;65.25;96299.97;10400179;28;20069;-61
2023/10/20 12:12:40;;;;;;;6.13;2.78;;;;;;;16.49;65.62;96289.16;10424029;28;20382;-61
2023/10/20 12:17:42;;;;;;;4.57;2.85;;;;;;;16.77;65.20;96271.03;10421214;28;20421;-62
2023/10/20 12:22:44;;;;;;;6.45;2.72;;;;;;;17.00;65.15;96271.19;10425155;28;20553;-61
2023/10/20 12:27:46;;;;;;;4.45;2.70;;;;;;;16.97;64.87;96270.84;10421031;28;20063;-62
2023/10/20 12:32:47;;;;;;;4.13;2.60;;;;;;;16.82;65.07;96289.66;10419302;28;20053;-61
2023/10/20 12:37:52;;;;;;;5.00;2.63;;;;;;;16.68;65.32;96298.75;10420948;28;20072;-61
2023/10/20 12:42:54;;;;;;;5.45;2.97;;;;;;;16.80;65.47;96310.19;10402591;28;20051;-61
2023/10/20 12:47:56;;;;;;;3.40;2.40;;;;;;;16.90;65.11;96310.50;10420656;28;20041;-61
2023/10/20 12:52:59;;;;;;;5.82;2.70;;;;;;;16.91;65.49;96321.88;10422063;28;20041;-62
2023/10/20 12:58:02;;;;;;;3.85;2.42;;;;;;;16.81;65.85;96318.91;10434468;28;20060;-62
2023/10/20 13:03:04;;;;;;;4.30;2.33;;;;;;;16.67;65.85;96314.78;10421393;28;20048;-62
2023/10/20 13:08:08;;;;;;;5.10;2.53;;;;;;;16.59;66.08;96312.44;10421161;28;20548;-62
2023/10/20 13:13:10;;;;;;;4.50;2.33;;;;;;;16.61;66.60;96319.09;10403266;28;20448;-62
2023/10/20 13:18:15;;;;;;;5.90;3.15;;;;;;;16.76;66.08;96322.19;10421965;28;20616;-61
2023/10/20 13:23:17;;;;;;;4.35;2.17;;;;;;;16.77;66.18;96334.34;10395696;28;20053;-62
2023/10/20 13:28:19;;;;;;;5.25;2.28;;;;;;;16.80;66.25;96338.41;10415796;28;20677;-61
2023/10/20 13:33:21;;;;;;;5.80;2.10;;;;;;;16.77;65.86;96346.75;10422805;28;20052;-62
2023/10/20 13:38:23;;;;;;;3.83;2.25;;;;;;;16.81;66.51;96358.50;10420723;28;20060;-62
2023/10/20 13:43:28;;;;;;;2.85;1.83;;;;;;;17.04;66.39;96345.47;10421890;28;20493;-62
2023/10/20 13:48:32;;;;;;;3.88;2.10;;;;;;;17.43;65.79;96345.06;10418919;28;20044;-62
2023/10/20 13:53:36;;;;;;;2.60;1.50;;;;;;;17.35;65.79;96331.34;10405414;28;20043;-62
2023/10/20 13:58:39;;;;;;;3.13;1.50;;;;;;;17.38;65.64;96334.38;10417514;28;20095;-62
2023/10/20 14:03:41;;;;;;;2.40;1.60;;;;;;;17.37;65.60;96345.97;10416951;28;20174;-62
2023/10/20 14:08:43;;;;;;;2.55;1.52;;;;;;;17.30;65.72;96349.69;10418569;28;20052;-62
2023/10/20 14:13:45;;;;;;;3.45;1.20;;;;;;;17.19;65.56;96366.25;10418137;28;20477;-62
2023/10/20 14:18:47;;;;;;;2.13;1.30;;;;;;;17.25;65.66;96384.66;10400188;28;20485;-62
2023/10/20 14:23:49;;;;;;;4.00;1.33;;;;;;;17.11;65.48;96388.47;10422334;28;20037;-62
2023/10/20 14:28:51;;;;;;;1.60;1.08;;;;;;;16.99;65.11;96421.88;10417629;28;20041;-62
2023/10/20 14:33:53;;;;;;;3.47;0.60;;;;;;;16.91;64.17;96430.06;10421768;28;20308;-62
2023/10/20 14:38:55;;;;;;;1.15;0.60;;;;;;;16.79;63.07;96440.50;10401874;28;20048;-61
2023/10/20 14:43:57;;;;;;;0.70;0.60;;;;;;;16.56;62.99;96456.13;10432495;28;20041;-62
2023/10/20 14:48:59;;;;;;;0.55;0.55;;;;;;;16.30;62.77;96490.53;10432703;28;20540;-62
2023/10/20 14:54:01;;;;;;;0.50;0.50;;;;;;;16.32;62.99;96506.94;10434809;28;20575;-61
2023/10/20 14:59:03;;;;;;;0.30;0.30;;;;;;;16.34;62.74;96504.91;10431193;28;20053;-62
2023/10/20 15:04:06;;;;;;;3.05;1.10;;;;;;;16.26;62.93;96515.69;10433348;28;20471;-62
2023/10/20 15:09:28;;;;;;;2.17;1.10;;;;;;;16.30;62.75;96513.44;10430899;28;20627;-62
2023/10/20 15:14:30;;;;;;;3.10;0.88;;;;;;;16.16;62.42;96520.59;10432080;28;20191;-62
2023/10/20 15:19:32;;;;;;;0.75;0.60;;;;;;;16.09;62.37;96504.81;10430573;28;20377;-62
2023/10/20 15:24:35;;;;;;;2.78;0.43;;;;;;;16.09;62.17;96527.72;10432859;28;20057;-62
2023/10/20 15:29:38;;;;;;;0.47;0.40;;;;;;;16.10;62.24;96538.03;10414554;28;20072;-61
2023/10/20 15:34:42;;;;;;;0.25;0.25;;;;;;;15.99;61.95;96522.91;10430227;28;20160;-62
2023/10/20 15:39:44;;;;;;;0.50;0.50;;;;;;;16.05;62.21;96529.97;10413601;28;20728;-61
2023/10/20 15:45:02;;;;;;;0.90;0.52;;;;;;;16.27;61.64;96529.66;10433282;28;20037;-61
2023/10/20 15:50:05;;;;;;;0.60;0.43;;;;;;;16.24;61.47;96542.25;10429706;28;20064;-61
2023/10/20 15:55:07;;;;;;;0.35;0.30;;;;;;;16.05;61.47;96571.31;10427951;28;20048;-61
2023/10/20 16:00:09;;;;;;;0.30;0.30;;;;;;;15.93;61.62;96579.06;10424446;28;20055;-61
2023/10/20 16:05:15;;;;;;;0.40;0.40;;;;;;;15.86;61.54;96601.97;10424813;28;20045;-61
2023/10/20 16:10:18;;;;;;;2.65;0.40;;;;;;;15.70;62.01;96625.28;10405281;28;20047;-61
2023/10/20 16:15:19;;;;;;;2.47;0.70;;;;;;;15.62;61.67;96639.50;10422869;28;20386;-61
2023/10/20 16:20:22;;;;;;;0.60;0.40;;;;;;;15.53;61.93;96637.25;10423150;28;20057;-62
2023/10/20 16:25:23;;;;;;;2.60;0.80;;;;;;;15.38;61.77;96648.78;10426470;28;20071;-61
2023/10/20 16:30:25;;;;;;;1.67;0.80;;;;;;;15.24;61.89;96654.22;10421395;28;20048;-62
2023/10/20 16:35:28;;;;;;;0.57;0.55;;;;;;;15.13;62.25;96665.31;10426951;28;20159;-62
2023/10/20 16:40:31;;;;;;;0.40;0.40;;;;;;;15.05;62.04;96662.88;10425338;28;20036;-61
2023/10/20 16:45:36;;;;;;;0.57;0.40;;;;;;;14.97;61.88;96692.00;10408490;28;20055;-61
2023/10/20 16:50:41;;;;;;;0.60;0.57;;;;;;;14.89;62.06;96700.06;10415578;28;20563;-62
2023/10/20 16:55:43;;;;;;;0.32;0.32;;;;;;;14.85;62.34;96727.78;10421847;28;20139;-61
2023/10/20 17:00:46;;;;;;;0.57;0.50;;;;;;;14.75;62.42;96727.31;10419164;28;20048;-61
2023/10/20 17:05:48;;;;;;;0.40;0.40;;;;;;;14.64;62.60;96727.84;10404583;28;20045;-61
2023/10/20 17:10:50;;;;;;;2.00;0.43;;;;;;;14.52;62.99;96735.50;10419977;28;20045;-61
2023/10/20 17:15:52;;;;;;;0.30;0.30;;;;;;;14.38;63.37;96745.09;10385522;28;20051;-61
2023/10/20 17:21:00;;;;;;;0.75;0.50;;;;;;;14.32;63.52;96753.75;10411749;28;20094;-61
2023/10/20 17:26:04;;;;;;;0.40;0.40;;;;;;;14.27;63.59;96764.00;10420786;28;20095;-61
2023/10/20 17:31:06;;;;;;;2.53;0.50;;;;;;;14.22;63.58;96771.66;10422566;28;20033;-61
2023/10/20 17:36:10;;;;;;;0.50;0.50;;;;;;;14.09;63.67;96774.19;10407540;28;20489;-61
2023/10/20 17:41:12;;;;;;;2.05;0.50;;;;;;;14.00;64.17;96785.84;10404428;28;20134;-61
2023/10/20 17:46:16;;;;;;;6.15;2.38;;;;;;;13.84;64.71;96777.41;10406053;28;20045;-60
2023/10/20 17:51:20;;;;;;;3.15;1.83;;;;;;;13.58;65.02;96772.69;10422989;28;20489;-60
2023/10/20 17:56:23;;;;;;;3.10;1.20;;;;;;;13.39;65.66;96779.31;10391846;28;20068;-59
2023/10/20 18:01:24;;;;;;;1.83;1.40;;;;;;;13.28;65.86;96795.56;10419035;28;20303;-60
2023/10/20 18:06:27;;;;;;;1.95;1.00;;;;;;;13.28;65.79;96802.63;10424276;28;20056;-60
2023/10/20 18:11:29;;;;;;;1.48;0.82;;;;;;;13.35;65.73;96811.41;10422040;28;20052;-59
2023/10/20 18:16:32;;;;;;;1.10;0.80;;;;;;;13.36;65.66;96811.19;10420775;28;20052;-60
2023/10/20 18:21:35;;;;;;;1.15;0.80;;;;;;;13.33;65.82;96808.13;10420960;28;20464;-60
2023/10/20 18:26:37;;;;;;;1.00;0.80;;;;;;;13.22;65.91;96804.19;10420555;28;20044;-60
2023/10/20 18:31:40;;;;;;;1.02;0.93;;;;;;;13.05;66.03;96807.19;10420942;28;20056;-60
2023/10/20 18:36:42;;;;;;;1.58;1.00;;;;;;;12.94;66.24;96803.22;10423260;28;20060;-60
2023/10/20 18:41:44;;;;;;;0.85;0.70;;;;;;;12.80;66.38;96802.19;10421493;28;20063;-60
2023/10/20 18:46:46;;;;;;;1.35;1.00;;;;;;;12.75;66.52;96796.69;10422752;28;20060;-60
2023/10/20 18:51:48;;;;;;;1.42;0.95;;;;;;;12.62;66.46;96816.69;10424628;28;20140;-60
2023/10/20 18:56:50;;;;;;;1.30;1.00;;;;;;;12.52;66.83;96810.88;10419885;28;20080;-60
2023/10/20 19:01:52;;;;;;;1.80;1.30;;;;;;;12.48;66.98;96822.69;10416804;28;20044;-60
2023/10/20 19:06:57;;;;;;;2.50;1.40;;;;;;;12.46;66.88;96828.13;10418073;28;20120;-60
2023/10/20 19:11:59;;;;;;;1.60;1.08;;;;;;;12.29;66.88;96825.84;10401072;28;20040;-60
2023/10/20 19:17:01;;;;;;;4.63;0.80;;;;;;;12.18;67.53;96848.00;10423199;28;20037;-60
2023/10/20 19:22:04;;;;;;;3.28;0.90;;;;;;;11.93;67.89;96842.13;10413737;28;20148;-60
2023/10/20 19:27:06;;;;;;;2.75;1.40;;;;;;;11.94;68.17;96843.78;10416774;28;20045;-60
2023/10/20 19:32:09;;;;;;;4.03;1.90;;;;;;;12.02;67.91;96850.75;10427468;28;20053;-60
2023/10/20 19:37:12;;;;;;;4.88;1.83;;;;;;;11.95;68.35;96860.28;10429615;28;20307;-60
2023/10/20 19:42:14;;;;;;;7.30;2.88;;;;;;;11.93;68.36;96862.25;10428612;28;20045;-60
2023/10/20 19:47:16;;;;;;;5.72;2.40;;;;;;;11.75;68.18;96867.78;10411941;28;20045;-60
2023/10/20 19:52:18;;;;;;;8.82;3.60;;;;;;;11.55;68.49;96884.09;10425483;28;20051;-60
2023/10/20 19:57:21;;;;;;;12.40;4.25;;;;;;;11.49;68.82;96876.94;10424721;28;20265;-59
2023/10/20 20:02:23;;;;;;;5.50;2.35;;;;;;;11.55;68.52;96882.31;10429683;28;20048;-60
2023/10/20 20:07:27;;;;;;;5.32;2.30;;;;;;;11.48;68.40;96883.16;10426185;28;20183;-60
2023/10/20 20:12:30;;;;;;;5.63;2.55;;;;;;;11.48;68.49;96880.53;10426200;28;20045;-60
2023/10/20 20:17:33;;;;;;;4.80;2.50;;;;;;;11.36;68.53;96874.84;10411054;28;20067;-60
2023/10/20 20:22:36;;;;;;;4.20;2.03;;;;;;;11.36;69.02;96876.69;10423129;28;20151;-60
2023/10/20 20:27:38;;;;;;;4.38;2.03;;;;;;;11.49;68.86;96876.94;10408466;28;20052;-60
2023/10/20 20:32:41;;;;;;;5.30;2.47;;;;;;;11.39;68.78;96884.19;10426124;28;20509;-59
2023/10/20 20:37:46;;;;;;;6.07;2.42;;;;;;;11.46;68.68;96900.84;10427049;28;20044;-60
2023/10/20 20:42:48;;;;;;;4.43;2.55;;;;;;;11.51;68.45;96894.09;10426679;28;20532;-60
2023/10/20 20:47:51;;;;;;;6.55;2.35;;;;;;;11.47;68.37;96902.44;10424681;28;20562;-60
2023/10/20 20:52:54;;;;;;;2.95;1.90;;;;;;;11.44;68.62;96905.44;10424484;28;20405;-60
2023/10/20 20:57:57;;;;;;;4.72;2.50;;;;;;;11.47;68.52;96911.13;10408668;28;20041;-60
2023/10/20 21:03:00;;;;;;;6.25;1.98;;;;;;;11.24;68.82;96915.47;10423330;28;20053;-60
2023/10/20 21:08:03;;;;;;;3.28;1.75;;;;;;;11.27;69.20;96915.13;10440741;28;20064;-60
2023/10/20 21:13:06;;;;;;;3.22;1.88;;;;;;;11.42;68.99;96907.41;10424569;28;20049;-60
2023/10/20 21:18:09;;;;;;;3.97;2.05;;;;;;;11.68;68.76;96911.34;10425594;28;20044;-60
2023/10/20 21:23:13;;;;;;;3.20;1.65;;;;;;;11.75;69.13;96912.28;10409315;28;20107;-60
2023/10/20 21:28:16;;;;;;;5.90;2.00;;;;;;;11.88;68.76;96914.34;10424633;28;20048;-59
2023/10/20 21:33:18;;;;;;;3.28;1.73;;;;;;;12.05;68.76;96905.38;10423358;28;20059;-60
2023/10/20 21:38:22;;;;;;;5.63;1.80;;;;;;;12.06;68.61;96897.38;10424674;28;20049;-60
2023/10/20 21:43:24;;;;;;;2.63;1.65;;;;;;;12.04;68.98;96890.69;10424722;28;20314;-60
2023/10/20 21:48:26;;;;;;;2.47;1.50;;;;;;;11.96;69.19;96901.22;10422765;28;20428;-59
2023/10/20 21:53:29;;;;;;;2.38;1.52;;;;;;;12.07;69.39;96895.56;10423097;28;20416;-60
2023/10/20 21:58:39;;;;;;;3.33;1.90;;;;;;;12.27;68.60;96896.75;10422718;28;20135;-59
2023/10/20 22:03:42;;;;;;;4.03;2.30;;;;;;;12.33;68.41;96896.06;10421642;28;20493;-60
2023/10/20 22:08:44;;;;;;;4.78;2.25;;;;;;;12.31;68.39;96900.69;10425063;28;20325;-59
2023/10/20 22:13:46;;;;;;;8.10;2.10;;;;;;;12.27;68.40;96907.22;10437006;28;20049;-60
2023/10/20 22:18:48;;;;;;;3.67;2.10;;;;;;;12.35;68.55;96907.19;10404864;28;20040;-60
2023/10/20 22:23:50;;;;;;;5.70;2.10;;;;;;;12.53;68.58;96907.69;10421404;28;20041;-59
2023/10/20 22:28:52;;;;;;;12.48;2.33;;;;;;;12.69;68.24;96911.97;10422537;28;20045;-60
2023/10/20 22:33:54;;;;;;;5.68;2.30;;;;;;;12.68;68.18;96920.84;10421675;28;20142;-59
2023/10/20 22:38:56;;;;;;;3.90;2.20;;;;;;;12.69;68.14;96917.22;10422651;28;20482;-59
2023/10/20 22:43:58;;;;;;;5.18;1.90;;;;;;;12.68;67.86;96910.34;10420996;28;20470;-60
2023/10/20 22:49:00;;;;;;;3.75;1.80;;;;;;;12.74;68.43;96915.69;10405140;28;20052;-59
2023/10/20 22:54:02;;;;;;;3.42;1.63;;;;;;;12.81;68.49;96907.94;10399641;28;20048;-59
2023/10/20 22:59:04;;;;;;;2.58;1.52;;;;;;;12.73;69.00;96902.75;10422708;28;20056;-59
2023/10/20 23:04:06;;;;;;;3.28;1.85;;;;;;;12.77;69.23;96909.28;10410438;28;20041;-59
2023/10/20 23:09:09;;;;;;;5.13;1.80;;;;;;;12.88;69.26;96914.09;10430859;28;20103;-60
2023/10/20 23:14:15;;;;;;;5.07;2.03;;;;;;;12.91;69.59;96905.84;10426290;28;20060;-60
2023/10/20 23:19:17;;;;;;;2.88;1.50;;;;;;;12.96;69.63;96904.31;10429890;28;20123;-59
2023/10/20 23:24:18;;;;;;;4.10;2.20;;;;;;;12.98;69.87;96901.53;10429583;28;20048;-60
2023/10/20 23:29:23;;;;;;;2.70;1.35;;;;;;;13.07;69.86;96903.06;10412221;28;20146;-59
2023/10/20 23:34:25;;;;;;;1.63;1.15;;;;;;;13.24;69.84;96906.31;10429416;28;20041;-59
2023/10/20 23:39:29;;;;;;;1.88;1.20;;;;;;;13.36;69.65;96889.94;10443091;28;20123;-60
2023/10/20 23:44:31;;;;;;;1.95;1.30;;;;;;;13.37;70.06;96894.19;10409222;28;20778;-60
2023/10/20 23:49:37;;;;;;;2.25;1.38;;;;;;;13.43;69.93;96890.06;10426892;28;20064;-59
2023/10/20 23:54:39;;;;;;;3.58;1.60;;;;;;;13.51;69.76;96887.34;10427796;28;20497;-59